createdAt,value
2018-12-09T00:02:26.548Z,14.50
2018-12-09T00:04:55.477Z,14.90
2018-12-09T00:07:24.436Z,9.73
2018-12-09T00:09:53.398Z,11.73
2018-12-09T00:12:22.378Z,11.83
2018-12-09T00:14:51.285Z,9.70
2018-12-09T00:17:20.228Z,9.47
2018-12-09T00:19:49.116Z,11.50
2018-12-09T00:22:18.215Z,10.30
2018-12-09T00:24:47.083Z,10.33
2018-12-09T00:27:16.901Z,10.40
2018-12-09T00:29:45.784Z,9.50
2018-12-09T00:32:14.720Z,9.00
2018-12-09T00:34:43.714Z,9.67
2018-12-09T00:37:12.601Z,11.17
2018-12-09T00:39:41.521Z,9.37
2018-12-09T00:42:10.428Z,10.10
2018-12-09T00:44:39.470Z,8.13
2018-12-09T00:47:09.507Z,8.90
2018-12-09T00:49:38.320Z,6.23
2018-12-09T00:52:07.147Z,8.00
2018-12-09T00:54:36.008Z,7.97
2018-12-09T00:57:05.743Z,7.60
2018-12-09T00:59:34.915Z,5.20
2018-12-09T01:02:05.843Z,4.30
2018-12-09T01:04:34.750Z,5.00
2018-12-09T01:07:03.667Z,4.77
2018-12-09T01:09:32.460Z,4.63
2018-12-09T01:12:01.572Z,6.57
2018-12-09T01:14:30.341Z,5.93
2018-12-09T01:16:59.168Z,6.77
2018-12-09T01:19:27.936Z,8.57
2018-12-09T01:21:56.912Z,6.60
2018-12-09T01:24:25.709Z,4.60
2018-12-09T01:26:54.576Z,8.43
2018-12-09T01:29:23.600Z,4.77
2018-12-09T01:31:52.386Z,6.10
2018-12-09T01:34:21.183Z,5.93
2018-12-09T01:36:50.006Z,5.00
2018-12-09T01:39:18.764Z,5.27
2018-12-09T01:41:47.571Z,4.27
2018-12-09T01:44:16.732Z,5.33
2018-12-09T01:46:45.559Z,4.97
2018-12-09T01:49:14.343Z,6.83
2018-12-09T01:51:43.345Z,6.20
2018-12-09T01:54:12.551Z,5.43
2018-12-09T01:56:41.415Z,6.37
2018-12-09T01:59:10.243Z,4.80
2018-12-09T02:01:39.006Z,5.80
2018-12-09T02:04:08.123Z,5.33
2018-12-09T02:06:36.962Z,3.83
2018-12-09T02:09:06.947Z,5.83
2018-12-09T02:11:35.790Z,4.53
2018-12-09T02:14:04.712Z,4.13
2018-12-09T02:16:34.041Z,3.43
2018-12-09T02:19:15.545Z,3.27
2018-12-09T02:21:44.694Z,3.20
2018-12-09T02:24:13.676Z,4.10
2018-12-09T02:26:42.600Z,4.03
2018-12-09T02:29:11.521Z,3.53
2018-12-09T02:31:40.335Z,3.87
2018-12-09T02:34:09.309Z,4.47
2018-12-09T02:36:38.351Z,4.87
2018-12-09T02:39:07.692Z,2.60
2018-12-09T02:41:37.463Z,2.30
2018-12-09T02:44:06.427Z,2.87
2018-12-09T02:46:36.743Z,3.73
2018-12-09T02:49:05.637Z,1.97
2018-12-09T02:51:34.746Z,2.60
2018-12-09T02:54:04.090Z,3.37
2018-12-09T02:56:32.947Z,2.83
2018-12-09T02:59:01.885Z,2.50
2018-12-09T03:01:30.893Z,2.27
2018-12-09T03:03:59.726Z,3.67
2018-12-09T03:06:28.565Z,3.07
2018-12-09T03:08:57.525Z,1.77
2018-12-09T03:11:26.374Z,2.30
2018-12-09T03:13:58.632Z,2.10
2018-12-09T03:16:27.470Z,2.30
2018-12-09T03:18:56.988Z,3.13
2018-12-09T03:21:25.854Z,3.17
2018-12-09T03:23:54.778Z,2.10
2018-12-09T03:26:23.679Z,3.13
2018-12-09T03:28:52.544Z,3.57
2018-12-09T03:31:21.471Z,3.27
2018-12-09T03:33:50.480Z,2.57
2018-12-09T03:36:19.512Z,2.97
2018-12-09T03:38:48.425Z,2.33
2018-12-09T03:41:17.664Z,2.20
2018-12-09T03:43:46.656Z,1.97
2018-12-09T03:46:15.637Z,3.87
2018-12-09T03:48:44.765Z,2.33
2018-12-09T03:51:13.733Z,5.93
2018-12-09T03:53:42.715Z,2.30
2018-12-09T03:56:11.823Z,1.70
2018-12-09T03:58:40.852Z,2.23
2018-12-09T04:01:09.988Z,3.73
2018-12-09T04:03:39.455Z,2.40
2018-12-09T04:06:09.486Z,2.50
2018-12-09T04:08:38.590Z,3.30
2018-12-09T04:11:07.649Z,3.53
2018-12-09T04:13:36.887Z,2.33
2018-12-09T04:16:06.053Z,2.40
2018-12-09T04:18:35.172Z,3.23
2018-12-09T04:21:04.360Z,2.40
2018-12-09T04:23:33.453Z,3.73
2018-12-09T04:26:03.005Z,4.90
2018-12-09T04:28:32.109Z,2.40
2018-12-09T04:31:01.226Z,3.23
2018-12-09T04:33:30.391Z,4.00
2018-12-09T04:36:00.764Z,3.53
2018-12-09T04:38:30.120Z,2.97
2018-12-09T04:40:59.329Z,4.17
2018-12-09T04:43:28.603Z,3.23
2018-12-09T04:45:57.796Z,4.53
2018-12-09T04:48:26.935Z,3.90
2018-12-09T04:50:56.307Z,4.43
2018-12-09T04:53:25.452Z,3.87
2018-12-09T04:55:54.655Z,4.30
2018-12-09T04:58:24.283Z,2.97
2018-12-09T05:00:54.128Z,4.10
2018-12-09T05:03:23.361Z,3.13
2018-12-09T05:05:52.632Z,3.37
2018-12-09T05:08:21.865Z,5.07
2018-12-09T05:10:51.056Z,4.27
2018-12-09T05:13:20.370Z,3.50
2018-12-09T05:15:49.563Z,3.27
2018-12-09T05:18:18.970Z,3.60
2018-12-09T05:20:48.530Z,3.40
2018-12-09T05:23:17.779Z,4.33
2018-12-09T05:25:47.940Z,4.03
2018-12-09T05:28:17.142Z,4.00
2018-12-09T05:30:46.551Z,3.07
2018-12-09T05:33:15.702Z,2.47
2018-12-09T05:35:44.939Z,2.73
2018-12-09T05:38:14.110Z,4.33
2018-12-09T05:40:43.499Z,1.87
2018-12-09T05:43:14.347Z,2.93
2018-12-09T05:45:43.498Z,2.73
2018-12-09T05:48:12.623Z,4.43
2018-12-09T05:50:41.798Z,1.90
2018-12-09T05:53:10.932Z,3.33
2018-12-09T05:55:40.119Z,2.30
2018-12-09T05:58:09.218Z,2.30
2018-12-09T06:00:38.595Z,2.47
2018-12-09T06:03:07.676Z,3.20
2018-12-09T06:05:37.189Z,2.73
2018-12-09T06:08:06.587Z,3.00
2018-12-09T06:10:35.643Z,4.33
2018-12-09T06:13:05.961Z,2.87
2018-12-09T06:15:35.254Z,4.07
2018-12-09T06:18:04.359Z,2.90
2018-12-09T06:20:33.436Z,3.63
2018-12-09T06:23:02.457Z,3.00
2018-12-09T06:25:31.480Z,4.20
2018-12-09T06:28:00.882Z,5.03
2018-12-09T06:30:29.879Z,3.77
2018-12-09T06:32:58.812Z,5.17
2018-12-09T06:35:27.860Z,5.60
2018-12-09T06:37:56.857Z,3.73
2018-12-09T06:40:25.767Z,5.53
2018-12-09T06:42:54.741Z,5.07
2018-12-09T06:45:23.631Z,4.17
2018-12-09T06:47:52.708Z,5.57
2018-12-09T06:50:21.536Z,3.87
2018-12-09T06:52:50.387Z,3.53
2018-12-09T06:55:19.250Z,4.40
2018-12-09T06:57:48.097Z,6.07
2018-12-09T07:00:17.085Z,4.67
2018-12-09T07:02:46.020Z,4.53
2018-12-09T07:05:15.790Z,5.20
2018-12-09T07:07:44.625Z,4.10
2018-12-09T07:10:13.401Z,4.73
2018-12-09T07:12:42.607Z,7.03
2018-12-09T07:15:11.457Z,6.90
2018-12-09T07:17:40.288Z,7.30
2018-12-09T07:20:09.112Z,8.10
2018-12-09T07:22:37.884Z,9.53
2018-12-09T07:25:06.896Z,5.03
2018-12-09T07:27:36.068Z,6.00
2018-12-09T07:30:07.323Z,3.22
2018-12-09T07:32:34.804Z,3.40
2018-12-09T07:35:02.277Z,3.90
2018-12-09T07:37:29.768Z,2.70
2018-12-09T07:39:57.556Z,2.93
2018-12-09T07:42:25.179Z,2.60
2018-12-09T07:44:52.671Z,2.60
2018-12-09T07:47:20.157Z,1.87
2018-12-09T07:49:47.685Z,2.00
2018-12-09T07:52:15.480Z,3.97
2018-12-09T07:54:43.085Z,3.83
2018-12-09T07:57:10.547Z,4.20
2018-12-09T07:59:38.119Z,3.90
2018-12-09T08:02:05.707Z,6.80
2018-12-09T08:04:33.181Z,4.40
2018-12-09T08:07:00.786Z,4.03
2018-12-09T08:09:28.259Z,3.70
2018-12-09T08:11:55.734Z,3.47
2018-12-09T08:14:23.342Z,3.10
2018-12-09T08:16:51.731Z,5.97
2018-12-09T08:19:19.340Z,4.50
2018-12-09T08:21:46.819Z,4.00
2018-12-09T08:24:14.313Z,3.87
2018-12-09T08:26:41.828Z,5.77
2018-12-09T08:29:09.335Z,8.20
2018-12-09T08:31:37.879Z,5.40
2018-12-09T08:34:05.347Z,4.23
2018-12-09T08:36:32.825Z,3.70
2018-12-09T08:39:00.355Z,3.27
2018-12-09T08:41:27.829Z,4.30
2018-12-09T08:43:55.340Z,4.40
2018-12-09T08:46:23.021Z,5.83
2018-12-09T08:48:50.751Z,5.20
2018-12-09T08:51:18.297Z,4.20
2018-12-09T08:53:46.265Z,4.20
2018-12-09T08:56:13.779Z,5.13
2018-12-09T08:58:41.255Z,4.50
2018-12-09T09:01:08.764Z,3.90
2018-12-09T09:03:36.232Z,5.43
2018-12-09T09:06:03.932Z,6.50
2018-12-09T09:08:32.343Z,7.50
2018-12-09T09:10:59.831Z,5.40
2018-12-09T09:13:27.354Z,5.43
2018-12-09T09:15:54.859Z,6.80
2018-12-09T09:18:22.376Z,7.63
2018-12-09T09:20:49.889Z,7.20
2018-12-09T09:23:17.572Z,5.83
2018-12-09T09:25:45.057Z,5.97
2018-12-09T09:28:12.631Z,8.10
2018-12-09T09:30:40.183Z,11.80
2018-12-09T09:33:07.676Z,6.37
2018-12-09T09:35:35.210Z,4.77
2018-12-09T09:38:02.677Z,5.43
2018-12-09T09:40:30.320Z,2.97
2018-12-09T09:42:57.783Z,4.13
2018-12-09T09:45:25.332Z,3.03
2018-12-09T09:47:52.900Z,5.10
2018-12-09T09:50:20.365Z,4.03
2018-12-09T09:52:47.895Z,3.57
2018-12-09T09:55:15.377Z,3.03
2018-12-09T09:57:43.046Z,3.50
2018-12-09T10:00:10.515Z,2.53
2018-12-09T10:02:38.013Z,2.27
2018-12-09T10:05:05.712Z,2.50
2018-12-09T10:07:33.189Z,2.03
2018-12-09T10:10:01.030Z,1.63
2018-12-09T10:12:28.529Z,3.27
2018-12-09T10:14:56.025Z,2.40
2018-12-09T10:17:23.568Z,1.20
2018-12-09T10:19:51.048Z,2.47
2018-12-09T10:22:18.576Z,2.27
2018-12-09T10:24:46.071Z,1.67
2018-12-09T10:27:13.582Z,1.93
2018-12-09T10:29:41.051Z,1.47
2018-12-09T10:32:08.752Z,1.67
2018-12-09T10:34:38.877Z,2.00
2018-12-09T10:37:05.740Z,4.10
2018-12-09T10:39:33.244Z,2.23
2018-12-09T10:42:00.726Z,3.63
2018-12-09T10:44:28.418Z,2.50
2018-12-09T10:46:55.884Z,2.57
2018-12-09T10:49:23.455Z,1.40
2018-12-09T10:51:50.964Z,1.27
2018-12-09T10:54:18.451Z,2.83
2018-12-09T10:56:45.992Z,1.20
2018-12-09T10:59:13.468Z,1.77
2018-12-09T11:01:42.930Z,2.10
2018-12-09T11:04:10.448Z,1.73
2018-12-09T11:06:37.915Z,1.60
2018-12-09T11:09:05.931Z,2.40
2018-12-09T11:11:33.408Z,1.30
2018-12-09T11:14:00.879Z,1.43
2018-12-09T11:16:28.448Z,3.40
2018-12-09T11:18:55.935Z,2.93
2018-12-09T11:21:30.357Z,2.80
2018-12-09T11:23:54.983Z,2.47
2018-12-09T11:26:22.711Z,3.73
2018-12-09T11:28:50.253Z,1.80
2018-12-09T11:31:17.752Z,3.17
2018-12-09T11:33:45.253Z,4.37
2018-12-09T11:36:12.737Z,4.20
2018-12-09T11:38:40.316Z,4.27
2018-12-09T11:41:07.884Z,3.87
2018-12-09T11:43:35.372Z,2.80
2018-12-09T11:46:03.427Z,1.57
2018-12-09T11:48:31.152Z,2.77
2018-12-09T11:50:58.683Z,2.13
2018-12-09T11:53:26.168Z,1.93
2018-12-09T11:55:54.059Z,2.17
2018-12-09T11:58:21.543Z,1.47
2018-12-09T12:00:49.048Z,1.37
2018-12-09T12:03:16.587Z,1.50
2018-12-09T12:05:44.103Z,2.23
2018-12-09T12:08:11.660Z,4.20
2018-12-09T12:10:39.166Z,2.37
2018-12-09T12:13:06.682Z,1.83
2018-12-09T12:15:34.205Z,3.63
2018-12-09T12:18:01.725Z,2.97
2018-12-09T12:20:29.294Z,1.60
2018-12-09T12:22:56.797Z,5.87
2018-12-09T12:25:24.511Z,2.77
2018-12-09T12:27:52.931Z,2.47
2018-12-09T12:30:20.458Z,1.00
2018-12-09T12:32:50.436Z,3.30
2018-12-09T12:35:19.397Z,1.00
2018-12-09T12:37:48.636Z,3.40
2018-12-09T12:40:17.650Z,1.50
2018-12-09T12:42:46.657Z,3.60
2018-12-09T12:45:15.712Z,1.50
2018-12-09T12:47:45.421Z,0.87
2018-12-09T12:50:14.496Z,0.73
2018-12-09T12:52:43.584Z,1.93
2018-12-09T12:55:12.842Z,0.80
2018-12-09T12:57:43.892Z,1.20
2018-12-09T13:00:15.523Z,1.53
2018-12-09T13:02:44.691Z,1.87
2018-12-09T13:05:13.896Z,0.70
2018-12-09T13:07:42.955Z,2.53
2018-12-09T13:10:12.015Z,1.53
2018-12-09T13:12:41.079Z,2.83
2018-12-09T13:15:10.077Z,3.03
2018-12-09T13:17:39.149Z,1.33
2018-12-09T13:20:08.191Z,1.17
2018-12-09T13:22:37.212Z,2.03
2018-12-09T13:25:06.334Z,1.93
2018-12-09T13:27:35.415Z,4.40
2018-12-09T13:30:06.116Z,2.57
2018-12-09T13:32:35.242Z,1.67
2018-12-09T13:35:04.489Z,1.50
2018-12-09T13:37:33.569Z,0.90
2018-12-09T13:40:02.716Z,2.13
2018-12-09T13:42:31.838Z,1.37
2018-12-09T13:45:00.909Z,1.70
2018-12-09T13:47:30.230Z,1.00
2018-12-09T13:49:59.344Z,2.40
2018-12-09T13:52:28.420Z,1.20
2018-12-09T13:54:57.627Z,1.57
2018-12-09T13:57:26.841Z,1.67
2018-12-09T13:59:56.132Z,1.67
2018-12-09T14:02:25.269Z,2.77
2018-12-09T14:04:54.404Z,1.90
2018-12-09T14:07:23.552Z,3.40
2018-12-09T14:09:52.721Z,3.83
2018-12-09T14:12:21.902Z,2.80
2018-12-09T14:14:51.218Z,4.17
2018-12-09T14:17:20.607Z,2.40
2018-12-09T14:19:49.794Z,3.67
2018-12-09T14:22:19.016Z,2.20
2018-12-09T14:24:48.275Z,2.27
2018-12-09T14:27:18.272Z,3.30
2018-12-09T14:29:47.640Z,3.90
2018-12-09T14:32:16.910Z,0.90
2018-12-09T14:34:46.088Z,1.17
2018-12-09T14:37:15.318Z,4.00
2018-12-09T14:39:45.025Z,4.17
2018-12-09T14:42:14.406Z,3.60
2018-12-09T14:44:43.587Z,2.83
2018-12-09T14:47:12.777Z,4.93
2018-12-09T14:49:42.017Z,2.10
2018-12-09T14:52:11.320Z,2.87
2018-12-09T14:54:40.727Z,2.20
2018-12-09T14:57:09.934Z,2.73
2018-12-09T14:59:39.106Z,2.90
2018-12-09T15:02:08.333Z,3.47
2018-12-09T15:04:37.451Z,3.87
2018-12-09T15:07:07.271Z,4.30
2018-12-09T15:09:36.442Z,4.07
2018-12-09T15:12:06.545Z,3.87
2018-12-09T15:14:35.784Z,3.53
2018-12-09T15:17:05.058Z,4.20
2018-12-09T15:19:34.249Z,5.03
2018-12-09T15:22:05.411Z,4.00
2018-12-09T15:24:41.457Z,3.60
2018-12-09T15:27:05.781Z,5.00
2018-12-09T15:29:35.006Z,3.97
2018-12-09T15:32:05.841Z,4.47
2018-12-09T15:34:35.538Z,4.40
2018-12-09T15:37:04.743Z,4.43
2018-12-09T15:39:33.963Z,5.70
2018-12-09T15:42:03.280Z,3.60
2018-12-09T15:44:32.592Z,4.73
2018-12-09T15:47:02.155Z,2.90
2018-12-09T15:49:32.383Z,2.23
2018-12-09T15:52:01.657Z,3.30
2018-12-09T15:54:31.189Z,4.37
2018-12-09T15:57:00.464Z,3.20
2018-12-09T15:59:32.227Z,3.40
2018-12-09T16:02:01.243Z,2.63
2018-12-09T16:04:30.780Z,2.50
2018-12-09T16:07:01.063Z,1.73
2018-12-09T16:09:30.437Z,1.60
2018-12-09T16:11:59.788Z,2.47
2018-12-09T16:14:29.045Z,1.57
2018-12-09T16:16:58.508Z,2.03
2018-12-09T16:19:27.732Z,1.90
2018-12-09T16:21:56.934Z,1.20
2018-12-09T16:24:26.246Z,1.70
2018-12-09T16:26:55.440Z,1.27
2018-12-09T16:29:24.813Z,2.63
2018-12-09T16:31:54.028Z,1.93
2018-12-09T16:34:23.205Z,2.03
2018-12-09T16:36:52.377Z,2.50
2018-12-09T16:39:21.518Z,2.00
2018-12-09T16:41:51.146Z,1.37
2018-12-09T16:44:20.273Z,2.73
2018-12-09T16:46:49.615Z,2.03
2018-12-09T16:49:18.755Z,1.83
2018-12-09T16:51:47.839Z,1.67
2018-12-09T16:54:17.054Z,2.83
2018-12-09T16:56:46.068Z,3.73
2018-12-09T16:59:15.157Z,2.03
2018-12-09T17:01:44.261Z,2.47
2018-12-09T17:04:13.330Z,3.60
2018-12-09T17:06:42.488Z,1.53
2018-12-09T17:09:11.538Z,1.63
2018-12-09T17:11:40.588Z,2.93
2018-12-09T17:14:09.755Z,2.60
2018-12-09T17:16:38.802Z,1.10
2018-12-09T17:19:07.858Z,1.50
2018-12-09T17:21:37.064Z,4.17
2018-12-09T17:24:06.308Z,2.30
2018-12-09T17:26:35.318Z,2.93
2018-12-09T17:29:05.446Z,1.97
2018-12-09T17:31:34.845Z,2.50
2018-12-09T17:34:03.855Z,2.00
2018-12-09T17:36:32.883Z,3.47
2018-12-09T17:39:01.870Z,2.60
2018-12-09T17:41:30.903Z,1.73
2018-12-09T17:43:59.943Z,3.27
2018-12-09T17:46:29.084Z,2.53
2018-12-09T17:48:58.069Z,2.47
2018-12-09T17:51:27.096Z,2.77
2018-12-09T17:53:56.054Z,2.57
2018-12-09T17:56:25.090Z,4.70
2018-12-09T17:58:54.146Z,1.97
2018-12-09T18:01:23.370Z,1.47
2018-12-09T18:03:52.340Z,1.03
2018-12-09T18:06:21.920Z,2.10
2018-12-09T18:08:50.903Z,3.20
2018-12-09T18:11:19.862Z,5.70
2018-12-09T18:13:49.078Z,2.90
2018-12-09T18:16:17.961Z,5.00
2018-12-09T18:18:46.839Z,2.63
2018-12-09T18:21:15.784Z,2.10
2018-12-09T18:23:44.636Z,2.80
2018-12-09T18:26:13.588Z,4.13
2018-12-09T18:28:42.403Z,2.47
2018-12-09T18:31:12.480Z,2.67
2018-12-09T18:33:41.295Z,2.97
2018-12-09T18:36:10.367Z,2.90
2018-12-09T18:38:39.305Z,2.00
2018-12-09T18:41:08.350Z,1.43
2018-12-09T18:43:37.229Z,4.00
2018-12-09T18:46:06.239Z,3.03
2018-12-09T18:48:35.045Z,2.83
2018-12-09T18:51:03.991Z,2.43
2018-12-09T18:53:32.824Z,4.33
2018-12-09T18:56:01.603Z,3.40
2018-12-09T18:58:30.422Z,7.87
2018-12-09T19:00:59.180Z,5.73
2018-12-09T19:03:28.009Z,5.47
2018-12-09T19:05:56.775Z,5.00
2018-12-09T19:08:25.832Z,5.07
2018-12-09T19:10:54.751Z,3.67
2018-12-09T19:13:23.492Z,3.93
2018-12-09T19:15:52.276Z,3.43
2018-12-09T19:18:21.060Z,3.33
2018-12-09T19:20:50.847Z,3.53
2018-12-09T19:23:19.669Z,5.17
2018-12-09T19:25:49.033Z,4.40
2018-12-09T19:28:17.864Z,2.20
2018-12-09T19:30:48.313Z,3.23
2018-12-09T19:33:17.381Z,6.07
2018-12-09T19:35:46.153Z,2.87
2018-12-09T19:38:14.887Z,6.10
2018-12-09T19:40:43.709Z,5.17
2018-12-09T19:43:13.259Z,4.87
2018-12-09T19:45:42.272Z,3.17
2018-12-09T19:48:11.075Z,4.30
2018-12-09T19:50:40.037Z,3.13
2018-12-09T19:53:08.788Z,1.33
2018-12-09T19:55:37.541Z,2.57
2018-12-09T19:58:06.369Z,3.43
2018-12-09T20:00:35.227Z,2.40
2018-12-09T20:03:04.067Z,4.47
2018-12-09T20:05:32.845Z,3.80
2018-12-09T20:08:01.666Z,3.13
2018-12-09T20:10:30.431Z,2.77
2018-12-09T20:12:59.559Z,2.00
2018-12-09T20:15:28.318Z,3.57
2018-12-09T20:17:57.093Z,5.73
2018-12-09T20:20:26.009Z,4.20
2018-12-09T20:22:54.805Z,3.77
2018-12-09T20:25:23.580Z,3.03
2018-12-09T20:27:52.256Z,4.13
2018-12-09T20:30:21.424Z,3.73
2018-12-09T20:32:50.145Z,7.03
2018-12-09T20:35:18.891Z,5.50
2018-12-09T20:37:47.629Z,4.00
2018-12-09T20:40:16.375Z,3.43
2018-12-09T20:42:48.260Z,2.10
2018-12-09T20:45:15.834Z,5.03
2018-12-09T20:47:44.554Z,4.00
2018-12-09T20:50:13.332Z,2.93
2018-12-09T20:52:42.007Z,3.20
2018-12-09T20:55:10.699Z,4.60
2018-12-09T20:57:39.357Z,5.13
2018-12-09T21:00:08.043Z,2.37
2018-12-09T21:02:36.749Z,4.60
2018-12-09T21:05:05.903Z,4.27
2018-12-09T21:07:34.551Z,4.03
2018-12-09T21:10:07.170Z,5.13
2018-12-09T21:12:35.852Z,7.27
2018-12-09T21:15:05.143Z,7.23
2018-12-09T21:17:33.873Z,4.13
2018-12-09T21:20:02.512Z,3.90
2018-12-09T21:22:31.393Z,4.67
2018-12-09T21:25:00.040Z,5.27
2018-12-09T21:27:28.674Z,5.87
2018-12-09T21:29:57.387Z,4.47
2018-12-09T21:32:26.029Z,5.43
2018-12-09T21:34:54.660Z,5.63
2018-12-09T21:37:23.336Z,6.27
2018-12-09T21:39:51.952Z,2.70
2018-12-09T21:42:20.963Z,5.23
2018-12-09T21:44:49.621Z,1.90
2018-12-09T21:47:18.242Z,5.03
2018-12-09T21:49:46.926Z,3.50
2018-12-09T21:52:15.581Z,1.70
2018-12-09T21:54:44.269Z,4.43
2018-12-09T21:57:12.900Z,3.73
2018-12-09T21:59:41.592Z,3.33
2018-12-09T22:02:09.155Z,5.87
2018-12-09T22:04:36.808Z,4.60
2018-12-09T22:07:04.387Z,4.53
2018-12-09T22:09:31.993Z,3.30
2018-12-09T22:11:59.594Z,3.40
2018-12-09T22:14:27.258Z,2.10
2018-12-09T22:16:54.754Z,5.13
2018-12-09T22:19:22.394Z,3.60
2018-12-09T22:21:49.874Z,4.30
2018-12-09T22:24:17.365Z,3.70
2018-12-09T22:26:44.945Z,3.60
2018-12-09T22:29:12.434Z,3.80
2018-12-09T22:31:40.004Z,1.70
2018-12-09T22:34:07.481Z,1.77
2018-12-09T22:36:34.960Z,1.67
2018-12-09T22:39:02.484Z,3.43
2018-12-09T22:41:30.083Z,3.17
2018-12-09T22:43:57.725Z,1.87
2018-12-09T22:46:25.204Z,4.13
2018-12-09T22:48:52.683Z,4.03
2018-12-09T22:51:20.201Z,1.23
2018-12-09T22:53:47.722Z,1.67
2018-12-09T22:56:15.364Z,1.67
2018-12-09T22:58:42.843Z,1.90
2018-12-09T23:01:15.845Z,3.13
2018-12-09T23:03:43.356Z,3.67
2018-12-09T23:06:10.950Z,1.27
2018-12-09T23:08:38.574Z,1.53
2018-12-09T23:11:06.050Z,3.47
2018-12-09T23:13:35.506Z,4.13
2018-12-09T23:16:02.972Z,2.07
2018-12-09T23:18:30.447Z,1.23
2018-12-09T23:20:58.905Z,2.47
2018-12-09T23:23:26.406Z,2.67
2018-12-09T23:25:54.091Z,2.57
2018-12-09T23:28:21.573Z,1.90
2018-12-09T23:30:49.046Z,1.50
2018-12-09T23:33:16.559Z,3.27
2018-12-09T23:35:44.074Z,2.20
2018-12-09T23:38:11.759Z,1.10
2018-12-09T23:40:39.246Z,4.70
2018-12-09T23:43:06.745Z,1.73
2018-12-09T23:45:34.280Z,5.80
2018-12-09T23:48:01.775Z,2.87
2018-12-09T23:50:29.284Z,1.10
2018-12-09T23:52:56.753Z,1.17
2018-12-09T23:55:24.500Z,2.33
2018-12-09T23:57:51.979Z,3.70
